PWSweather.com
Personal Weather Stations
Station Observations
HESKRFRR38
Schwerin, Germany, Klein RogahnDE 19073

Schwerin, GermanyKlein RogahnDE 19073

Lat: 53.6059537, Lon: 11.3412162

Elevation: 167.3226

Station Type: VantagePro2

Latest ConditionsUpdated 10:20:00 AM GMT+01:01 Thursday, Dec 12, 2019
Currently Today's Max Today's Min Today's Average
Temperature 38.5°F3.6°C 38.5°F3.6°C 34.3°F1.3°C 36.0°F2.2°C
Dew Point 37.7°F3.2°C 37.7°F3.2°C 33.3°F0.7°C 35.2°F1.8°C
Winds 2.0 mph SSW3.2 kmh SSW 4.0 mph -6.4 kmh - - 1.5 mph 2.4 kmh
Wind Gusts 5.0 mph8.0 kmh 8.0 mph12.9 kmh - -
Humidity 97% 97% 96% 97%
Pressure 29.50 in999.0 mb 29.57 in1001.4 mb 29.50 in999.0 mb -
Precipitation - 0.02 in0.5 mm - -
Hour Temp Dew Point Humidity Winds Wind Gusts Pressure Precip Precip Rate Daily Precip Total
10:20 AM 38.5°F3.6°C 37.7°F3.2°C 97% 2.0 mph SSW3.2 kmh SSW 5.0 mph8.0 kmh 29.50 in999.0 mb 0.00 in0.0 mm 0.00 in0.0 mm 0.02 in0.5 mm
10:15 AM 38.4°F3.6°C 37.6°F3.1°C 97% 2.0 mph SSW3.2 kmh SSW 3.0 mph4.8 kmh 29.50 in999.0 mb 0.00 in0.0 mm 0.00 in0.0 mm 0.02 in0.5 mm
10:10 AM 38.3°F3.5°C 37.5°F3.1°C 97% 2.0 mph SSW3.2 kmh SSW 3.0 mph4.8 kmh 29.50 in999.0 mb 0.00 in0.0 mm 0.00 in0.0 mm 0.02 in0.5 mm
10:05 AM 38.2°F3.4°C 37.4°F3.0°C 97% 2.0 mph SSW3.2 kmh SSW 3.0 mph4.8 kmh 29.50 in999.0 mb 0.00 in0.0 mm 0.00 in0.0 mm 0.02 in0.5 mm
10:00 AM 38.1°F3.4°C 37.3°F2.9°C 97% 2.0 mph SSW3.2 kmh SSW 3.0 mph4.8 kmh 29.50 in999.0 mb 0.00 in0.0 mm 0.00 in0.0 mm 0.02 in0.5 mm
09:55 AM 38.0°F3.3°C 37.2°F2.9°C 97% 2.0 mph SSW3.2 kmh SSW 3.0 mph4.8 kmh 29.50 in999.0 mb 0.00 in0.0 mm 0.00 in0.0 mm 0.02 in0.5 mm
09:50 AM 37.9°F3.3°C 37.1°F2.8°C 97% 2.0 mph SSW3.2 kmh SSW 4.0 mph6.4 kmh 29.50 in999.0 mb 0.00 in0.0 mm 0.00 in0.0 mm 0.02 in0.5 mm
09:45 AM 37.9°F3.3°C 37.1°F2.8°C 97% 2.0 mph SSW3.2 kmh SSW 3.0 mph4.8 kmh 29.50 in999.0 mb 0.00 in0.0 mm 0.00 in0.0 mm 0.02 in0.5 mm
09:40 AM 37.8°F3.2°C 37.0°F2.8°C 97% 2.0 mph SSW3.2 kmh SSW 4.0 mph6.4 kmh 29.50 in999.0 mb 0.00 in0.0 mm 0.00 in0.0 mm 0.02 in0.5 mm
09:35 AM 37.7°F3.2°C 36.9°F2.7°C 97% 2.0 mph SSW3.2 kmh SSW 4.0 mph6.4 kmh 29.50 in999.0 mb 0.00 in0.0 mm 0.00 in0.0 mm 0.02 in0.5 mm
09:30 AM 37.6°F3.1°C 36.8°F2.7°C 97% 2.0 mph SSW3.2 kmh SSW 3.0 mph4.8 kmh 29.50 in999.0 mb 0.00 in0.0 mm 0.00 in0.0 mm 0.02 in0.5 mm
09:25 AM 37.5°F3.1°C 36.7°F2.6°C 97% 2.0 mph SSW3.2 kmh SSW 4.0 mph6.4 kmh 29.51 in999.3 mb 0.00 in0.0 mm 0.00 in0.0 mm 0.02 in0.5 mm
09:20 AM 37.5°F3.1°C 36.7°F2.6°C 97% 2.0 mph SSW3.2 kmh SSW 3.0 mph4.8 kmh 29.50 in999.0 mb 0.00 in0.0 mm 0.00 in0.0 mm 0.02 in0.5 mm
09:15 AM 37.5°F3.1°C 36.7°F2.6°C 97% 2.0 mph SSW3.2 kmh SSW 4.0 mph6.4 kmh 29.51 in999.3 mb 0.00 in0.0 mm 0.00 in0.0 mm 0.02 in0.5 mm
09:10 AM 37.4°F3.0°C 36.6°F2.6°C 97% 2.0 mph SSW3.2 kmh SSW 4.0 mph6.4 kmh 29.50 in999.0 mb 0.00 in0.0 mm 0.00 in0.0 mm 0.02 in0.5 mm
09:05 AM 37.4°F3.0°C 36.6°F2.6°C 97% 1.0 mph SSW1.6 kmh SSW 3.0 mph4.8 kmh 29.50 in999.0 mb 0.00 in0.0 mm 0.00 in0.0 mm 0.02 in0.5 mm
09:00 AM 37.4°F3.0°C 36.6°F2.6°C 97% 2.0 mph SW3.2 kmh SW 3.0 mph4.8 kmh 29.50 in999.0 mb 0.00 in0.0 mm 0.00 in0.0 mm 0.02 in0.5 mm
08:55 AM 37.4°F3.0°C 36.6°F2.6°C 97% 2.0 mph SW3.2 kmh SW 4.0 mph6.4 kmh 29.50 in999.0 mb 0.00 in0.0 mm 0.00 in0.0 mm 0.02 in0.5 mm
08:50 AM 37.4°F3.0°C 36.6°F2.6°C 97% 2.0 mph SSW3.2 kmh SSW 3.0 mph4.8 kmh 29.50 in999.0 mb 0.00 in0.0 mm 0.00 in0.0 mm 0.02 in0.5 mm
08:45 AM 37.3°F2.9°C 36.5°F2.5°C 97% 2.0 mph SW3.2 kmh SW 4.0 mph6.4 kmh 29.50 in999.0 mb 0.00 in0.0 mm 0.00 in0.0 mm 0.02 in0.5 mm
08:40 AM 37.4°F3.0°C 36.6°F2.6°C 97% 2.0 mph SW3.2 kmh SW 4.0 mph6.4 kmh 29.50 in999.0 mb 0.00 in0.0 mm 0.00 in0.0 mm 0.02 in0.5 mm
08:35 AM 37.3°F2.9°C 36.5°F2.5°C 97% 2.0 mph SW3.2 kmh SW 3.0 mph4.8 kmh 29.50 in999.0 mb 0.00 in0.0 mm 0.00 in0.0 mm 0.02 in0.5 mm
08:30 AM 37.3°F2.9°C 36.5°F2.5°C 97% 2.0 mph SW3.2 kmh SW 5.0 mph8.0 kmh 29.51 in999.3 mb 0.00 in0.0 mm 0.00 in0.0 mm 0.02 in0.5 mm
08:25 AM 37.4°F3.0°C 36.6°F2.6°C 97% 2.0 mph SSW3.2 kmh SSW 5.0 mph8.0 kmh 29.51 in999.3 mb 0.00 in0.0 mm 0.00 in0.0 mm 0.02 in0.5 mm
08:20 AM 37.4°F3.0°C 36.6°F2.6°C 97% 2.0 mph SW3.2 kmh SW 2.0 mph3.2 kmh 29.50 in999.0 mb 0.00 in0.0 mm 0.00 in0.0 mm 0.02 in0.5 mm
08:15 AM 37.5°F3.1°C 36.7°F2.6°C 97% 2.0 mph SW3.2 kmh SW 6.0 mph9.7 kmh 29.51 in999.3 mb 0.00 in0.0 mm 0.00 in0.0 mm 0.02 in0.5 mm
08:10 AM 37.5°F3.1°C 36.7°F2.6°C 97% 1.0 mph SSW1.6 kmh SSW 3.0 mph4.8 kmh 29.50 in999.0 mb 0.00 in0.0 mm 0.00 in0.0 mm 0.02 in0.5 mm
08:05 AM 37.6°F3.1°C 36.8°F2.7°C 97% 2.0 mph SW3.2 kmh SW 3.0 mph4.8 kmh 29.50 in999.0 mb 0.00 in0.0 mm 0.00 in0.0 mm 0.02 in0.5 mm
08:00 AM 37.7°F3.2°C 36.9°F2.7°C 97% 2.0 mph SSW3.2 kmh SSW 3.0 mph4.8 kmh 29.51 in999.3 mb 0.00 in0.0 mm 0.00 in0.0 mm 0.02 in0.5 mm
07:55 AM 37.7°F3.2°C 36.9°F2.7°C 97% 2.0 mph SSW3.2 kmh SSW 3.0 mph4.8 kmh 29.51 in999.3 mb 0.00 in0.0 mm 0.00 in0.0 mm 0.02 in0.5 mm
07:50 AM 37.7°F3.2°C 36.9°F2.7°C 97% 2.0 mph SSW3.2 kmh SSW 3.0 mph4.8 kmh 29.51 in999.3 mb 0.00 in0.0 mm 0.00 in0.0 mm 0.02 in0.5 mm
07:45 AM 37.7°F3.2°C 36.9°F2.7°C 97% 2.0 mph SW3.2 kmh SW 4.0 mph6.4 kmh 29.50 in999.0 mb 0.00 in0.0 mm 0.00 in0.0 mm 0.02 in0.5 mm
07:40 AM 37.7°F3.2°C 36.9°F2.7°C 97% 2.0 mph SW3.2 kmh SW 3.0 mph4.8 kmh 29.51 in999.3 mb 0.00 in0.0 mm 0.00 in0.0 mm 0.02 in0.5 mm
07:35 AM 37.6°F3.1°C 36.8°F2.7°C 97% 2.0 mph SW3.2 kmh SW 3.0 mph4.8 kmh 29.51 in999.3 mb 0.00 in0.0 mm 0.00 in0.0 mm 0.02 in0.5 mm
07:30 AM 37.7°F3.2°C 36.9°F2.7°C 97% 2.0 mph SW3.2 kmh SW 3.0 mph4.8 kmh 29.51 in999.3 mb 0.00 in0.0 mm 0.00 in0.0 mm 0.02 in0.5 mm
07:25 AM 37.6°F3.1°C 36.8°F2.7°C 97% 2.0 mph SW3.2 kmh SW 3.0 mph4.8 kmh 29.51 in999.3 mb 0.00 in0.0 mm 0.00 in0.0 mm 0.02 in0.5 mm
07:20 AM 37.5°F3.1°C 36.7°F2.6°C 97% 2.0 mph SW3.2 kmh SW 7.0 mph11.3 kmh 29.51 in999.3 mb 0.00 in0.0 mm 0.00 in0.0 mm 0.02 in0.5 mm
07:15 AM 37.4°F3.0°C 36.6°F2.6°C 97% 2.0 mph SW3.2 kmh SW 3.0 mph4.8 kmh 29.51 in999.3 mb 0.00 in0.0 mm 0.00 in0.0 mm 0.02 in0.5 mm
07:10 AM 37.3°F2.9°C 36.5°F2.5°C 97% 2.0 mph SW3.2 kmh SW 3.0 mph4.8 kmh 29.51 in999.3 mb 0.01 in0.3 mm 0.00 in0.0 mm 0.02 in0.5 mm
07:05 AM 37.2°F2.9°C 36.4°F2.4°C 97% 2.0 mph SW3.2 kmh SW 8.0 mph12.9 kmh 29.51 in999.3 mb 0.01 in0.3 mm 0.00 in0.0 mm 0.02 in0.5 mm
07:00 AM 37.2°F2.9°C 36.4°F2.4°C 97% 3.0 mph SW4.8 kmh SW 8.0 mph12.9 kmh 29.51 in999.3 mb 0.01 in0.3 mm 0.00 in0.0 mm 0.02 in0.5 mm
06:55 AM 37.1°F2.8°C 36.3°F2.4°C 97% 2.0 mph SW3.2 kmh SW 5.0 mph8.0 kmh 29.51 in999.3 mb 0.01 in0.3 mm 0.00 in0.0 mm 0.02 in0.5 mm
06:50 AM 37.1°F2.8°C 36.3°F2.4°C 97% 3.0 mph SSW4.8 kmh SSW 5.0 mph8.0 kmh 29.51 in999.3 mb 0.01 in0.3 mm 0.00 in0.0 mm 0.02 in0.5 mm
06:45 AM 37.0°F2.8°C 36.2°F2.3°C 97% 2.0 mph SSW3.2 kmh SSW 4.0 mph6.4 kmh 29.51 in999.3 mb 0.01 in0.3 mm 0.00 in0.0 mm 0.02 in0.5 mm
06:40 AM 37.0°F2.8°C 36.2°F2.3°C 97% 2.0 mph SSW3.2 kmh SSW 5.0 mph8.0 kmh 29.50 in999.0 mb 0.01 in0.3 mm 0.00 in0.0 mm 0.02 in0.5 mm
06:35 AM 37.0°F2.8°C 36.2°F2.3°C 97% 2.0 mph SSW3.2 kmh SSW 4.0 mph6.4 kmh 29.50 in999.0 mb 0.01 in0.3 mm 0.00 in0.0 mm 0.02 in0.5 mm
06:30 AM 36.9°F2.7°C 36.1°F2.3°C 97% 2.0 mph SSW3.2 kmh SSW 4.0 mph6.4 kmh 29.51 in999.3 mb 0.01 in0.3 mm 0.00 in0.0 mm 0.02 in0.5 mm
06:25 AM 36.9°F2.7°C 36.1°F2.3°C 97% 1.0 mph SSW1.6 kmh SSW 4.0 mph6.4 kmh 29.50 in999.0 mb 0.01 in0.3 mm 0.00 in0.0 mm 0.02 in0.5 mm
06:20 AM 36.8°F2.7°C 36.0°F2.2°C 97% 2.0 mph SSW3.2 kmh SSW 5.0 mph8.0 kmh 29.51 in999.3 mb 0.01 in0.3 mm 0.00 in0.0 mm 0.02 in0.5 mm
06:15 AM 36.8°F2.7°C 36.0°F2.2°C 97% 1.0 mph SSW1.6 kmh SSW 4.0 mph6.4 kmh 29.51 in999.3 mb 0.01 in0.3 mm 0.12 in3.0 mm 0.02 in0.5 mm
06:10 AM 36.8°F2.7°C 36.0°F2.2°C 97% 1.0 mph SSW1.6 kmh SSW 4.0 mph6.4 kmh 29.51 in999.3 mb 0.00 in0.0 mm 0.00 in0.0 mm 0.01 in0.3 mm
06:05 AM 36.7°F2.6°C 35.9°F2.2°C 97% 2.0 mph SSW3.2 kmh SSW 6.0 mph9.7 kmh 29.51 in999.3 mb 0.00 in0.0 mm 0.00 in0.0 mm 0.01 in0.3 mm
06:00 AM 36.6°F2.6°C 35.8°F2.1°C 97% 2.0 mph SSW3.2 kmh SSW 4.0 mph6.4 kmh 29.51 in999.3 mb 0.00 in0.0 mm 0.00 in0.0 mm 0.01 in0.3 mm
05:55 AM 36.5°F2.5°C 35.7°F2.1°C 97% 2.0 mph SSW3.2 kmh SSW 5.0 mph8.0 kmh 29.51 in999.3 mb 0.00 in0.0 mm 0.00 in0.0 mm 0.01 in0.3 mm
05:50 AM 36.4°F2.4°C 35.6°F2.0°C 97% 1.0 mph SW1.6 kmh SW 3.0 mph4.8 kmh 29.51 in999.3 mb 0.00 in0.0 mm 0.00 in0.0 mm 0.01 in0.3 mm
05:45 AM 36.3°F2.4°C 35.5°F1.9°C 97% 1.0 mph SW1.6 kmh SW 3.0 mph4.8 kmh 29.51 in999.3 mb 0.00 in0.0 mm 0.00 in0.0 mm 0.01 in0.3 mm
05:40 AM 36.1°F2.3°C 35.3°F1.8°C 97% 1.0 mph SW1.6 kmh SW 3.0 mph4.8 kmh 29.51 in999.3 mb 0.00 in0.0 mm 0.00 in0.0 mm 0.01 in0.3 mm
05:35 AM 36.1°F2.3°C 35.3°F1.8°C 97% 1.0 mph SSW1.6 kmh SSW 3.0 mph4.8 kmh 29.51 in999.3 mb 0.00 in0.0 mm 0.00 in0.0 mm 0.01 in0.3 mm
05:30 AM 36.1°F2.3°C 35.3°F1.8°C 97% 1.0 mph SSW1.6 kmh SSW 3.0 mph4.8 kmh 29.51 in999.3 mb 0.00 in0.0 mm 0.00 in0.0 mm 0.01 in0.3 mm
05:25 AM 36.0°F2.2°C 35.2°F1.8°C 97% 1.0 mph SSW1.6 kmh SSW 3.0 mph4.8 kmh 29.51 in999.3 mb 0.00 in0.0 mm 0.00 in0.0 mm 0.01 in0.3 mm
05:20 AM 35.9°F2.2°C 35.1°F1.7°C 97% 2.0 mph SSW3.2 kmh SSW 4.0 mph6.4 kmh 29.51 in999.3 mb 0.00 in0.0 mm 0.00 in0.0 mm 0.01 in0.3 mm
05:15 AM 35.9°F2.2°C 35.1°F1.7°C 97% 2.0 mph SSW3.2 kmh SSW 5.0 mph8.0 kmh 29.51 in999.3 mb 0.00 in0.0 mm 0.00 in0.0 mm 0.01 in0.3 mm
05:10 AM 35.8°F2.1°C 35.0°F1.7°C 97% 3.0 mph SSW4.8 kmh SSW 7.0 mph11.3 kmh 29.51 in999.3 mb 0.00 in0.0 mm 0.00 in0.0 mm 0.01 in0.3 mm
05:05 AM 35.7°F2.1°C 34.9°F1.6°C 97% 2.0 mph SSW3.2 kmh SSW 5.0 mph8.0 kmh 29.51 in999.3 mb 0.00 in0.0 mm 0.00 in0.0 mm 0.01 in0.3 mm
05:00 AM 35.6°F2.0°C 34.8°F1.6°C 97% 2.0 mph SSW3.2 kmh SSW 5.0 mph8.0 kmh 29.51 in999.3 mb 0.00 in0.0 mm 0.00 in0.0 mm 0.01 in0.3 mm
04:55 AM 35.5°F1.9°C 34.7°F1.5°C 97% 4.0 mph SSW6.4 kmh SSW 7.0 mph11.3 kmh 29.51 in999.3 mb 0.00 in0.0 mm 0.00 in0.0 mm 0.01 in0.3 mm
04:50 AM 35.4°F1.9°C 34.6°F1.4°C 97% 2.0 mph SSW3.2 kmh SSW 7.0 mph11.3 kmh 29.51 in999.3 mb 0.00 in0.0 mm 0.00 in0.0 mm 0.01 in0.3 mm
04:45 AM 35.3°F1.8°C 34.5°F1.4°C 97% 1.0 mph SSW1.6 kmh SSW 4.0 mph6.4 kmh 29.51 in999.3 mb 0.00 in0.0 mm 0.00 in0.0 mm 0.01 in0.3 mm
04:40 AM 35.2°F1.8°C 34.4°F1.3°C 97% 1.0 mph SSW1.6 kmh SSW 4.0 mph6.4 kmh 29.51 in999.3 mb 0.00 in0.0 mm 0.00 in0.0 mm 0.01 in0.3 mm
04:35 AM 35.2°F1.8°C 34.4°F1.3°C 97% 2.0 mph SSW3.2 kmh SSW 5.0 mph8.0 kmh 29.51 in999.3 mb 0.00 in0.0 mm 0.00 in0.0 mm 0.01 in0.3 mm
04:30 AM 35.1°F1.7°C 34.3°F1.3°C 97% 1.0 mph SSW1.6 kmh SSW 4.0 mph6.4 kmh 29.51 in999.3 mb 0.00 in0.0 mm 0.00 in0.0 mm 0.01 in0.3 mm
04:25 AM 35.0°F1.7°C 34.2°F1.2°C 97% 1.0 mph SSW1.6 kmh SSW 4.0 mph6.4 kmh 29.51 in999.3 mb 0.00 in0.0 mm 0.00 in0.0 mm 0.01 in0.3 mm
04:20 AM 35.0°F1.7°C 34.2°F1.2°C 97% 1.0 mph S1.6 kmh S 4.0 mph6.4 kmh 29.51 in999.3 mb 0.00 in0.0 mm 0.00 in0.0 mm 0.01 in0.3 mm
04:15 AM 34.9°F1.6°C 34.1°F1.2°C 97% Calm Calm -- 29.51 in999.3 mb 0.00 in0.0 mm 0.00 in0.0 mm 0.01 in0.3 mm
04:10 AM 34.9°F1.6°C 34.1°F1.2°C 97% Calm Calm 1.0 mph1.6 kmh 29.51 in999.3 mb 0.00 in0.0 mm 0.00 in0.0 mm 0.01 in0.3 mm
04:05 AM 34.8°F1.6°C 34.0°F1.1°C 97% Calm Calm -- 29.51 in999.3 mb 0.00 in0.0 mm 0.00 in0.0 mm 0.01 in0.3 mm
04:00 AM 34.8°F1.6°C 33.8°F1.0°C 96% Calm Calm -- 29.52 in999.7 mb 0.00 in0.0 mm 0.00 in0.0 mm 0.01 in0.3 mm
03:55 AM 34.8°F1.6°C 33.8°F1.0°C 96% Calm Calm 2.0 mph3.2 kmh 29.52 in999.7 mb 0.00 in0.0 mm 0.00 in0.0 mm 0.01 in0.3 mm
03:50 AM 34.7°F1.5°C 33.9°F1.1°C 97% Calm Calm 4.0 mph6.4 kmh 29.52 in999.7 mb 0.00 in0.0 mm 0.00 in0.0 mm 0.01 in0.3 mm
03:45 AM 34.7°F1.5°C 33.7°F0.9°C 96% Calm Calm 1.0 mph1.6 kmh 29.52 in999.7 mb 0.01 in0.3 mm 0.00 in0.0 mm 0.01 in0.3 mm
03:40 AM 34.6°F1.4°C 33.6°F0.9°C 96% Calm Calm 1.0 mph1.6 kmh 29.52 in999.7 mb 0.01 in0.3 mm 0.00 in0.0 mm 0.01 in0.3 mm
03:35 AM 34.6°F1.4°C 33.6°F0.9°C 96% Calm Calm 1.0 mph1.6 kmh 29.52 in999.7 mb 0.01 in0.3 mm 0.00 in0.0 mm 0.01 in0.3 mm
03:30 AM 34.6°F1.4°C 33.6°F0.9°C 96% Calm Calm 2.0 mph3.2 kmh 29.52 in999.7 mb 0.01 in0.3 mm 0.00 in0.0 mm 0.01 in0.3 mm
03:25 AM 34.5°F1.4°C 33.5°F0.8°C 96% Calm Calm 2.0 mph3.2 kmh 29.52 in999.7 mb 0.01 in0.3 mm 0.00 in0.0 mm 0.01 in0.3 mm
03:20 AM 34.5°F1.4°C 33.5°F0.8°C 96% Calm Calm 3.0 mph4.8 kmh 29.52 in999.7 mb 0.01 in0.3 mm 0.00 in0.0 mm 0.01 in0.3 mm
03:15 AM 34.5°F1.4°C 33.5°F0.8°C 96% 1.0 mph S1.6 kmh S 4.0 mph6.4 kmh 29.52 in999.7 mb 0.01 in0.3 mm 0.00 in0.0 mm 0.01 in0.3 mm
03:10 AM 34.5°F1.4°C 33.5°F0.8°C 96% Calm Calm 2.0 mph3.2 kmh 29.52 in999.7 mb 0.01 in0.3 mm 0.00 in0.0 mm 0.01 in0.3 mm
03:05 AM 34.4°F1.3°C 33.4°F0.8°C 96% Calm Calm 2.0 mph3.2 kmh 29.53 in1000.0 mb 0.01 in0.3 mm 0.00 in0.0 mm 0.01 in0.3 mm
03:00 AM 34.4°F1.3°C 33.4°F0.8°C 96% Calm Calm 2.0 mph3.2 kmh 29.53 in1000.0 mb 0.01 in0.3 mm 0.00 in0.0 mm 0.01 in0.3 mm
02:55 AM 34.4°F1.3°C 33.4°F0.8°C 96% Calm Calm 2.0 mph3.2 kmh 29.53 in1000.0 mb 0.01 in0.3 mm 0.00 in0.0 mm 0.01 in0.3 mm
02:50 AM 34.4°F1.3°C 33.4°F0.8°C 96% Calm Calm 3.0 mph4.8 kmh 29.53 in1000.0 mb 0.01 in0.3 mm 0.12 in3.0 mm 0.01 in0.3 mm
02:45 AM 34.4°F1.3°C 33.4°F0.8°C 96% Calm Calm 2.0 mph3.2 kmh 29.53 in1000.0 mb 0.00 in0.0 mm 0.00 in0.0 mm 0.00 in0.0 mm
02:40 AM 34.4°F1.3°C 33.4°F0.8°C 96% Calm Calm 2.0 mph3.2 kmh 29.53 in1000.0 mb 0.00 in0.0 mm 0.00 in0.0 mm 0.00 in0.0 mm
02:35 AM 34.3°F1.3°C 33.3°F0.7°C 96% Calm Calm 2.0 mph3.2 kmh 29.53 in1000.0 mb 0.00 in0.0 mm 0.00 in0.0 mm 0.00 in0.0 mm
02:30 AM 34.3°F1.3°C 33.3°F0.7°C 96% Calm Calm 2.0 mph3.2 kmh 29.54 in1000.3 mb 0.00 in0.0 mm 0.00 in0.0 mm 0.00 in0.0 mm
02:25 AM 34.3°F1.3°C 33.3°F0.7°C 96% 1.0 mph SSW1.6 kmh SSW 4.0 mph6.4 kmh 29.54 in1000.3 mb 0.00 in0.0 mm 0.00 in0.0 mm 0.00 in0.0 mm
02:20 AM 34.3°F1.3°C 33.3°F0.7°C 96% 1.0 mph S1.6 kmh S 3.0 mph4.8 kmh 29.54 in1000.3 mb 0.00 in0.0 mm 0.00 in0.0 mm 0.00 in0.0 mm
02:15 AM 34.3°F1.3°C 33.3°F0.7°C 96% Calm Calm 2.0 mph3.2 kmh 29.54 in1000.3 mb 0.00 in0.0 mm 0.00 in0.0 mm 0.00 in0.0 mm
02:10 AM 34.3°F1.3°C 33.3°F0.7°C 96% 1.0 mph S1.6 kmh S 4.0 mph6.4 kmh 29.54 in1000.3 mb 0.00 in0.0 mm 0.00 in0.0 mm 0.00 in0.0 mm
02:05 AM 34.3°F1.3°C 33.3°F0.7°C 96% Calm Calm 1.0 mph1.6 kmh 29.54 in1000.3 mb 0.00 in0.0 mm 0.00 in0.0 mm 0.00 in0.0 mm
02:00 AM 34.3°F1.3°C 33.3°F0.7°C 96% Calm Calm -- 29.54 in1000.3 mb 0.00 in0.0 mm 0.00 in0.0 mm 0.00 in0.0 mm
01:55 AM 34.3°F1.3°C 33.3°F0.7°C 96% 1.0 mph S1.6 kmh S 3.0 mph4.8 kmh 29.54 in1000.3 mb 0.00 in0.0 mm 0.00 in0.0 mm 0.00 in0.0 mm
01:50 AM 34.4°F1.3°C 33.4°F0.8°C 96% 1.0 mph SSE1.6 kmh SSE 3.0 mph4.8 kmh 29.54 in1000.3 mb 0.00 in0.0 mm 0.00 in0.0 mm 0.00 in0.0 mm
01:45 AM 34.4°F1.3°C 33.4°F0.8°C 96% 2.0 mph SSE3.2 kmh SSE 6.0 mph9.7 kmh 29.54 in1000.3 mb 0.00 in0.0 mm 0.00 in0.0 mm 0.00 in0.0 mm
01:40 AM 34.4°F1.3°C 33.4°F0.8°C 96% 2.0 mph SSE3.2 kmh SSE 5.0 mph8.0 kmh 29.54 in1000.3 mb 0.00 in0.0 mm 0.00 in0.0 mm 0.00 in0.0 mm
01:35 AM 34.4°F1.3°C 33.4°F0.8°C 96% 2.0 mph SSE3.2 kmh SSE 6.0 mph9.7 kmh 29.54 in1000.3 mb 0.00 in0.0 mm 0.00 in0.0 mm 0.00 in0.0 mm
01:30 AM 34.5°F1.4°C 33.5°F0.8°C 96% 2.0 mph SSE3.2 kmh SSE 5.0 mph8.0 kmh 29.54 in1000.3 mb 0.00 in0.0 mm 0.00 in0.0 mm 0.00 in0.0 mm
01:25 AM 34.6°F1.4°C 33.6°F0.9°C 96% 2.0 mph SSE3.2 kmh SSE 5.0 mph8.0 kmh 29.54 in1000.3 mb 0.00 in0.0 mm 0.00 in0.0 mm 0.00 in0.0 mm
01:20 AM 34.7°F1.5°C 33.7°F0.9°C 96% 2.0 mph S3.2 kmh S 5.0 mph8.0 kmh 29.54 in1000.3 mb 0.00 in0.0 mm 0.00 in0.0 mm 0.00 in0.0 mm
01:15 AM 34.8°F1.6°C 33.8°F1.0°C 96% 2.0 mph S3.2 kmh S 4.0 mph6.4 kmh 29.55 in1000.7 mb 0.00 in0.0 mm 0.00 in0.0 mm 0.00 in0.0 mm
01:10 AM 34.8°F1.6°C 33.8°F1.0°C 96% 2.0 mph S3.2 kmh S 6.0 mph9.7 kmh 29.55 in1000.7 mb 0.00 in0.0 mm 0.00 in0.0 mm 0.00 in0.0 mm
01:05 AM 34.9°F1.6°C 33.9°F1.1°C 96% 2.0 mph SSE3.2 kmh SSE 6.0 mph9.7 kmh 29.55 in1000.7 mb 0.00 in0.0 mm 0.00 in0.0 mm 0.00 in0.0 mm
01:00 AM 35.0°F1.7°C 34.0°F1.1°C 96% 1.0 mph SSW1.6 kmh SSW 4.0 mph6.4 kmh 29.55 in1000.7 mb 0.00 in0.0 mm 0.00 in0.0 mm 0.00 in0.0 mm
12:55 AM 35.0°F1.7°C 34.0°F1.1°C 96% 2.0 mph SSW3.2 kmh SSW 5.0 mph8.0 kmh 29.55 in1000.7 mb 0.00 in0.0 mm 0.00 in0.0 mm 0.00 in0.0 mm
12:50 AM 35.1°F1.7°C 34.1°F1.2°C 96% 2.0 mph S3.2 kmh S 5.0 mph8.0 kmh 29.55 in1000.7 mb 0.00 in0.0 mm 0.00 in0.0 mm 0.00 in0.0 mm
12:45 AM 35.1°F1.7°C 34.1°F1.2°C 96% 1.0 mph S1.6 kmh S 5.0 mph8.0 kmh 29.55 in1000.7 mb 0.00 in0.0 mm 0.00 in0.0 mm 0.00 in0.0 mm
12:40 AM 35.1°F1.7°C 34.1°F1.2°C 96% 3.0 mph S4.8 kmh S 7.0 mph11.3 kmh 29.55 in1000.7 mb 0.00 in0.0 mm 0.00 in0.0 mm 0.00 in0.0 mm
12:35 AM 35.2°F1.8°C 34.2°F1.2°C 96% 3.0 mph SSE4.8 kmh SSE 7.0 mph11.3 kmh 29.55 in1000.7 mb 0.00 in0.0 mm 0.00 in0.0 mm 0.00 in0.0 mm
12:30 AM 35.4°F1.9°C 34.4°F1.3°C 96% 2.0 mph SSE3.2 kmh SSE 6.0 mph9.7 kmh 29.56 in1001.0 mb 0.00 in0.0 mm 0.00 in0.0 mm 0.00 in0.0 mm
12:25 AM 35.4°F1.9°C 34.4°F1.3°C 96% 2.0 mph SSE3.2 kmh SSE 6.0 mph9.7 kmh 29.56 in1001.0 mb 0.00 in0.0 mm 0.00 in0.0 mm 0.00 in0.0 mm
12:20 AM 35.5°F1.9°C 34.5°F1.4°C 96% 2.0 mph SSE3.2 kmh SSE 5.0 mph8.0 kmh 29.56 in1001.0 mb 0.00 in0.0 mm 0.00 in0.0 mm 0.00 in0.0 mm
12:15 AM 35.6°F2.0°C 34.6°F1.4°C 96% 1.0 mph SSE1.6 kmh SSE 5.0 mph8.0 kmh 29.56 in1001.0 mb 0.00 in0.0 mm 0.00 in0.0 mm 0.00 in0.0 mm
12:10 AM 35.7°F2.1°C 34.7°F1.5°C 96% 1.0 mph SSE1.6 kmh SSE 4.0 mph6.4 kmh 29.56 in1001.0 mb 0.00 in0.0 mm 0.00 in0.0 mm 0.00 in0.0 mm
12:05 AM 35.7°F2.1°C 34.7°F1.5°C 96% 1.0 mph SSE1.6 kmh SSE 4.0 mph6.4 kmh 29.56 in1001.0 mb 0.00 in0.0 mm 0.00 in0.0 mm 0.00 in0.0 mm
12:00 AM 35.7°F2.1°C 34.7°F1.5°C 96% 2.0 mph SSE3.2 kmh SSE 6.0 mph9.7 kmh 29.57 in1001.4 mb 0.00 in0.0 mm 0.00 in0.0 mm 0.08 in2.0 mm